Windsor Locks, Connecticut
Current Conditions -  °F | °C
As of 9:51 AM on Wednesday 22 Oct 2014 (Local Time) from KBDL Reporting Station
Overcast Overcast  
Wind Chill: 54°   Ceiling: 1600
Heat Index: 54°   Visibility: 10mi
Dew Point: 48°   Wind: 13mph
Humidity: 80%   Direction: 10°N
Pressure: 30"   Gusts: NA
Location:  41.93°N, 72.63°W
Report Text: KBDL 221351Z 01011KT 10SM OVC016 12/09 A3000 RMK AO2 SLP160 T01220089
Loading
Personal Weather Stations






























Interactive Weather Map
Tropical Storm Tracking
New forecast layout! Learn more

10-Day Weather Forecast

Advertisements
Track Severe Weather on mobile